Time;durP1;ratioP1;P1;durP2;ratioP2;P2;SDS_P1;SDS_P2;PMS_P1;PMS_P2;Temp;Humidity;BMP_temperature;BMP_pressure;BME280_temperature;BME280_humidity;BME280_pressure;Samples;Min_cycle;Max_cycle;Signal;HPM_P1;HPM_P2
2023/08/22 00:00:59;;;;;;;20.63;11.90;;;;;;;25.53;58.40;100568.55;124359;1105;104182;-78
2023/08/22 00:03:37;;;;;;;21.57;12.27;;;;;;;25.51;58.61;100568.59;125069;1105;104227;-78
2023/08/22 00:06:08;;;;;;;20.20;12.37;;;;;;;25.48;58.34;100561.48;124278;1105;102067;-78
2023/08/22 00:08:40;;;;;;;20.07;11.50;;;;;;;25.46;58.17;100557.96;124295;1105;104377;-78
2023/08/22 00:11:11;;;;;;;20.65;12.20;;;;;;;25.46;58.17;100557.96;124268;1105;101983;-78
2023/08/22 00:13:42;;;;;;;26.07;12.37;;;;;;;25.45;58.32;100564.24;124239;1105;104606;-78
2023/08/22 00:16:14;;;;;;;24.13;12.53;;;;;;;25.40;58.49;100566.17;124176;1105;102118;-78
2023/08/22 00:18:45;;;;;;;22.30;11.57;;;;;;;25.36;58.98;100568.97;124166;1105;104254;-77
2023/08/22 00:21:17;;;;;;;19.03;11.73;;;;;;;25.30;59.12;100562.80;124205;1105;104293;-78
2023/08/22 00:23:48;;;;;;;18.40;11.93;;;;;;;25.26;59.57;100560.23;124192;1104;104185;-78
2023/08/22 00:26:19;;;;;;;20.63;12.40;;;;;;;25.21;59.45;100572.86;124264;1105;104182;-78
2023/08/22 00:28:50;;;;;;;18.73;11.73;;;;;;;25.19;60.03;100567.52;124330;1105;102025;-78
2023/08/22 00:31:22;;;;;;;22.83;12.23;;;;;;;25.17;59.96;100566.69;124278;1105;101973;-78
2023/08/22 00:33:53;;;;;;;18.53;11.90;;;;;;;25.16;59.72;100567.59;124165;1105;104313;-78
2023/08/22 00:36:24;;;;;;;18.90;12.17;;;;;;;25.15;59.59;100568.53;124128;1105;101906;-78
2023/08/22 00:38:56;;;;;;;21.10;12.43;;;;;;;25.16;59.88;100564.03;124183;1105;104188;-77
2023/08/22 00:41:27;;;;;;;19.90;12.27;;;;;;;25.14;59.58;100572.13;124265;1105;104246;-77
2023/08/22 00:43:59;;;;;;;20.17;12.33;;;;;;;25.09;60.18;100572.23;124187;1105;101998;-77
2023/08/22 00:46:31;;;;;;;22.57;12.33;;;;;;;25.04;59.95;100567.88;124164;1105;104179;-78
2023/08/22 00:49:04;;;;;;;21.97;12.13;;;;;;;25.01;59.97;100565.27;124273;1105;104281;-78
2023/08/22 00:51:36;;;;;;;21.93;12.13;;;;;;;25.00;60.36;100575.13;124304;1105;104395;-78
2023/08/22 00:54:08;;;;;;;19.23;11.50;;;;;;;24.99;60.46;100567.98;124196;1105;104274;-78
2023/08/22 00:56:40;;;;;;;20.10;12.60;;;;;;;24.97;60.49;100564.47;124168;1105;104252;-78
2023/08/22 00:59:11;;;;;;;19.47;11.97;;;;;;;24.95;60.57;100569.00;124187;1105;103298;-77
2023/08/22 01:01:43;;;;;;;22.57;12.03;;;;;;;24.93;60.70;100568.13;124225;1105;104352;-78
2023/08/22 01:04:14;;;;;;;20.73;11.87;;;;;;;24.90;60.61;100574.47;124292;1105;101877;-77
2023/08/22 01:06:50;;;;;;;19.97;12.30;;;;;;;24.90;60.87;100573.56;124211;1105;102452;-79
2023/08/22 01:09:28;;;;;;;23.03;12.00;;;;;;;24.89;61.00;100577.19;124200;1105;104224;-78
2023/08/22 01:12:06;;;;;;;20.83;11.63;;;;;;;24.89;61.24;100577.19;124181;1105;102036;-78
2023/08/22 01:14:44;;;;;;;24.13;11.90;;;;;;;24.86;60.93;100572.75;125243;1105;101849;-77
2023/08/22 01:17:16;;;;;;;20.57;12.10;;;;;;;24.84;61.07;100579.97;124269;1105;104175;-78
2023/08/22 01:19:47;;;;;;;19.63;12.53;;;;;;;24.80;61.18;100575.58;124262;1105;104217;-78
2023/08/22 01:22:23;;;;;;;18.70;12.47;;;;;;;24.78;61.72;100580.10;124253;1105;104224;-78
2023/08/22 01:24:55;;;;;;;20.03;12.67;;;;;;;24.74;61.64;100583.75;124165;1105;101932;-77
2023/08/22 01:27:32;;;;;;;20.77;12.47;;;;;;;24.72;62.12;100582.91;124170;1105;104188;-78
2023/08/22 01:30:11;;;;;;;20.77;11.87;;;;;;;24.67;62.22;100585.70;124268;1105;104184;-78
2023/08/22 01:32:49;;;;;;;21.33;11.57;;;;;;;24.63;61.97;100575.94;124376;1105;104087;-78
2023/08/22 01:35:25;;;;;;;20.60;12.35;;;;;;;24.62;62.50;100573.28;124262;1104;104210;-77
2023/08/22 01:37:57;;;;;;;20.50;12.77;;;;;;;24.58;62.46;100567.11;124375;1105;104176;-78
2023/08/22 01:40:30;;;;;;;22.63;12.37;;;;;;;24.54;62.49;100570.73;124300;1105;104185;-78
2023/08/22 01:43:02;;;;;;;20.07;12.40;;;;;;;24.52;62.90;100575.25;124321;1105;104220;-78
2023/08/22 01:45:33;;;;;;;23.60;12.33;;;;;;;24.51;62.58;100573.47;124494;1105;101877;-78
2023/08/22 01:48:05;;;;;;;24.07;13.23;;;;;;;24.47;63.20;100571.80;124421;1105;102035;-78
2023/08/22 01:50:36;;;;;;;21.50;12.60;;;;;;;24.45;63.34;100573.59;124383;1105;104342;-78
2023/08/22 01:53:08;;;;;;;21.17;12.13;;;;;;;24.43;63.19;100576.31;124345;1105;102316;-78
2023/08/22 01:55:39;;;;;;;20.43;12.43;;;;;;;24.43;63.57;100573.63;124339;1104;101954;-78
2023/08/22 01:58:11;;;;;;;20.13;12.50;;;;;;;24.41;63.31;100576.34;124199;1105;102070;-78
2023/08/22 02:00:43;;;;;;;21.07;12.43;;;;;;;24.38;63.29;100565.67;124233;1105;104191;-78
2023/08/22 02:03:14;;;;;;;22.07;12.93;;;;;;;24.36;63.49;100572.02;124183;1105;104211;-78
2023/08/22 02:05:46;;;;;;;19.60;12.80;;;;;;;24.33;63.81;100567.58;124266;1105;104076;-78
2023/08/22 02:08:17;;;;;;;21.43;13.00;;;;;;;24.30;64.30;100567.64;124368;1105;102073;-77
2023/08/22 02:10:48;;;;;;;18.53;12.50;;;;;;;24.28;64.42;100564.12;124167;1105;104290;-77
2023/08/22 02:13:20;;;;;;;20.47;12.43;;;;;;;24.22;64.27;100559.75;124234;1105;101966;-78
2023/08/22 02:15:51;;;;;;;19.77;13.13;;;;;;;24.18;64.16;100571.47;124126;1105;101996;-77
2023/08/22 02:18:23;;;;;;;20.90;12.73;;;;;;;24.17;64.29;100566.14;124215;1105;104135;-77
2023/08/22 02:20:57;;;;;;;20.90;12.13;;;;;;;24.14;65.01;100569.75;124171;1105;101968;-78
2023/08/22 02:23:29;;;;;;;22.07;12.97;;;;;;;24.11;65.28;100571.61;124234;1105;104274;-77
2023/08/22 02:26:00;;;;;;;19.77;13.07;;;;;;;24.09;65.28;100568.05;124249;1105;102061;-77
2023/08/22 02:28:31;;;;;;;23.27;13.50;;;;;;;24.08;65.19;100566.31;124182;1105;104192;-78
2023/08/22 02:31:03;;;;;;;20.93;13.10;;;;;;;24.07;65.39;100564.53;124352;1105;104159;-77
2023/08/22 02:33:34;;;;;;;20.13;12.60;;;;;;;24.07;65.51;100565.41;124382;1105;104232;-78
2023/08/22 02:36:06;;;;;;;19.57;12.67;;;;;;;24.07;64.95;100559.17;124237;1105;101849;-78
2023/08/22 02:38:38;;;;;;;20.70;12.77;;;;;;;24.07;65.58;100567.22;124217;1105;104238;-78
2023/08/22 02:41:10;;;;;;;21.00;13.67;;;;;;;24.05;65.51;100568.11;124138;1105;104194;-77
2023/08/22 02:43:41;;;;;;;21.80;12.80;;;;;;;24.02;65.87;100568.17;124292;1105;104227;-78
2023/08/22 02:46:13;;;;;;;22.70;12.83;;;;;;;24.00;66.18;100572.69;124076;1105;104210;-77
2023/08/22 02:48:44;;;;;;;19.80;12.90;;;;;;;23.98;66.07;100571.84;124245;1105;104188;-78
2023/08/22 02:51:18;;;;;;;22.33;13.20;;;;;;;23.99;65.78;100568.23;124287;1105;104411;-78
2023/08/22 02:54:07;;;;;;;20.77;12.63;;;;;;;24.00;65.71;100574.49;124274;1105;104118;-77
2023/08/22 02:56:39;;;;;;;21.03;12.83;;;;;;;23.98;66.17;100560.22;124213;1105;104066;-77
2023/08/22 02:59:10;;;;;;;20.45;13.30;;;;;;;23.98;66.01;100557.54;124309;1105;101904;-78
2023/08/22 03:01:41;;;;;;;20.87;13.20;;;;;;;24.00;65.82;100571.81;124337;1105;104239;-78
2023/08/22 03:04:14;;;;;;;22.00;13.57;;;;;;;23.99;66.19;100576.27;124306;1105;102026;-78
2023/08/22 03:06:46;;;;;;;19.20;12.83;;;;;;;23.97;66.08;100579.91;124284;1105;104124;-78
2023/08/22 03:09:18;;;;;;;20.53;12.83;;;;;;;23.92;66.45;100588.03;124379;1105;104224;-78
2023/08/22 03:11:49;;;;;;;19.73;12.43;;;;;;;23.89;66.53;100577.37;124393;1105;104197;-77
2023/08/22 03:14:20;;;;;;;20.77;13.40;;;;;;;23.90;66.29;100579.11;124296;1105;101804;-77
2023/08/22 03:16:52;;;;;;;21.87;13.47;;;;;;;23.87;66.58;100587.21;124259;1105;104232;-77
2023/08/22 03:19:23;;;;;;;20.07;12.80;;;;;;;23.83;66.49;100581.00;124226;1106;104259;-78
2023/08/22 03:21:57;;;;;;;19.90;12.53;;;;;;;23.85;66.60;100587.23;124259;1105;104251;-78
2023/08/22 03:24:28;;;;;;;20.53;12.80;;;;;;;23.86;66.53;100591.69;124335;1105;102132;-77
2023/08/22 03:27:00;;;;;;;20.30;12.97;;;;;;;23.85;66.61;100594.41;124187;1105;104313;-77
2023/08/22 03:29:32;;;;;;;19.73;12.40;;;;;;;23.82;66.47;100602.45;124213;1105;102019;-78
2023/08/22 03:32:03;;;;;;;23.87;14.07;;;;;;;23.82;66.27;100608.69;124331;1105;104358;-78
2023/08/22 03:34:34;;;;;;;20.00;12.67;;;;;;;23.82;66.72;100602.45;124334;1105;104195;-79
2023/08/22 03:37:06;;;;;;;19.43;13.20;;;;;;;23.79;66.80;100605.19;124317;1105;104211;-78
2023/08/22 03:39:38;;;;;;;24.17;13.43;;;;;;;23.77;66.62;100601.66;124377;1105;101854;-79
2023/08/22 03:42:10;;;;;;;21.10;13.10;;;;;;;23.77;66.88;100609.70;124303;1105;104192;-78
2023/08/22 03:44:41;;;;;;;22.43;13.33;;;;;;;23.77;66.77;100604.34;124245;1105;101960;-78
2023/08/22 03:47:13;;;;;;;19.43;13.27;;;;;;;23.79;66.75;100599.83;124214;1105;104219;-77
2023/08/22 03:49:47;;;;;;;21.37;13.47;;;;;;;23.81;66.73;100588.19;124238;1105;104281;-78
2023/08/22 03:52:19;;;;;;;21.53;13.47;;;;;;;23.83;66.61;100598.88;124415;1105;104223;-77
2023/08/22 03:54:54;;;;;;;22.57;12.40;;;;;;;23.86;66.91;100589.02;124389;1105;104345;-77
2023/08/22 03:57:25;;;;;;;18.83;12.43;;;;;;;23.87;66.73;100592.56;124220;1105;102056;-77
2023/08/22 03:59:57;;;;;;;20.43;12.80;;;;;;;23.86;66.81;100594.38;124239;1106;104175;-77
2023/08/22 04:02:28;;;;;;;22.30;12.90;;;;;;;23.85;67.09;100605.99;124344;1104;104258;-77
2023/08/22 04:05:00;;;;;;;19.67;12.87;;;;;;;23.86;67.40;100599.73;124274;1105;101826;-77
2023/08/22 04:07:31;;;;;;;21.17;12.93;;;;;;;23.88;67.19;100597.03;124215;1105;104343;-78
2023/08/22 04:10:02;;;;;;;22.10;12.90;;;;;;;23.92;67.14;100604.11;124229;1105;102106;-76
2023/08/22 04:12:35;;;;;;;20.10;13.07;;;;;;;23.95;67.21;100605.83;124098;1105;104220;-76
2023/08/22 04:15:07;;;;;;;19.97;12.83;;;;;;;24.04;67.35;100603.89;124055;1105;104230;-76
2023/08/22 04:17:41;;;;;;;21.73;14.23;;;;;;;24.12;67.26;100608.20;124902;1105;101989;-78
2023/08/22 04:20:13;;;;;;;22.80;13.43;;;;;;;24.13;67.47;100599.27;124196;1105;104341;-77
2023/08/22 04:22:45;;;;;;;22.00;13.90;;;;;;;24.16;67.22;100604.56;123951;1105;104070;-76
2023/08/22 04:25:16;;;;;;;22.57;13.30;;;;;;;24.20;67.29;100608.97;124070;1105;104137;-76
2023/08/22 04:27:48;;;;;;;21.53;13.27;;;;;;;24.18;67.52;100597.37;124006;1106;104370;-74
2023/08/22 04:30:19;;;;;;;20.50;12.90;;;;;;;24.29;66.99;100610.58;123958;1105;104258;-74
2023/08/22 04:32:50;;;;;;;19.63;13.00;;;;;;;24.32;67.08;100613.19;124038;1105;101984;-77
2023/08/22 04:35:23;;;;;;;20.80;13.03;;;;;;;24.31;67.33;100609.64;124097;1105;104368;-76
2023/08/22 04:37:57;;;;;;;28.07;13.73;;;;;;;24.34;67.44;100614.03;124049;1105;104310;-74
2023/08/22 04:40:28;;;;;;;20.57;13.57;;;;;;;24.40;67.56;100612.14;124094;1105;104281;-73
2023/08/22 04:43:06;;;;;;;23.67;13.03;;;;;;;24.40;67.62;100609.46;125865;1105;101892;-75
2023/08/22 04:45:38;;;;;;;20.27;13.03;;;;;;;24.40;67.26;100613.92;125823;1105;101981;-75
2023/08/22 04:48:10;;;;;;;23.53;13.53;;;;;;;24.41;67.62;100619.25;125737;1105;101956;-75
2023/08/22 04:50:47;;;;;;;21.10;13.23;;;;;;;24.41;67.34;100613.89;125400;1105;101848;-76
2023/08/22 04:53:19;;;;;;;24.37;13.47;;;;;;;24.44;67.54;100618.32;124096;1105;104367;-76
2023/08/22 04:55:51;;;;;;;25.30;13.77;;;;;;;24.45;67.84;100613.83;124113;1105;104204;-76
2023/08/22 04:58:23;;;;;;;27.20;14.07;;;;;;;24.46;67.63;100621.84;124144;1105;104233;-76
2023/08/22 05:00:54;;;;;;;29.73;14.47;;;;;;;24.50;67.55;100625.38;124396;1105;102241;-77
2023/08/22 05:03:25;;;;;;;23.73;14.43;;;;;;;24.55;67.50;100621.66;125404;1104;101809;-76
2023/08/22 05:05:57;;;;;;;26.10;13.87;;;;;;;24.59;67.71;100625.22;124192;1105;104182;-76
2023/08/22 05:08:28;;;;;;;28.53;14.73;;;;;;;24.64;67.91;100626.00;125197;1104;101847;-77
2023/08/22 05:11:06;;;;;;;35.60;15.30;;;;;;;24.69;67.85;100632.14;124259;1105;104376;-75
2023/08/22 05:13:37;;;;;;;29.17;15.47;;;;;;;24.75;67.86;100633.83;124004;1106;102131;-75
2023/08/22 05:16:09;;;;;;;24.37;14.17;;;;;;;24.82;67.78;100634.58;124115;1105;101954;-76
2023/08/22 05:18:40;;;;;;;31.27;15.60;;;;;;;24.87;67.76;100636.26;123973;1105;104182;-76
2023/08/22 05:21:13;;;;;;;26.53;14.97;;;;;;;24.96;67.48;100640.52;124013;1105;102229;-73
2023/08/22 05:23:45;;;;;;;30.43;15.03;;;;;;;25.03;67.87;100639.48;123922;1105;104262;-75
2023/08/22 05:26:17;;;;;;;25.57;15.20;;;;;;;25.08;67.54;100647.44;123897;1105;104342;-73
2023/08/22 05:28:49;;;;;;;27.73;15.17;;;;;;;25.12;67.38;100646.47;123949;1105;104156;-75
2023/08/22 05:31:24;;;;;;;27.67;14.47;;;;;;;25.17;67.30;100641.00;123997;1105;101985;-76
2023/08/22 05:33:58;;;;;;;26.30;13.73;;;;;;;25.26;67.19;100643.47;124094;1104;104760;-78
2023/08/22 05:36:30;;;;;;;28.27;14.93;;;;;;;25.32;67.09;100645.15;124943;1105;102850;-77
2023/08/22 05:39:04;;;;;;;27.20;14.10;;;;;;;25.37;66.79;100633.39;124141;1105;102637;-75
2023/08/22 05:41:39;;;;;;;22.17;13.93;;;;;;;25.41;67.04;100637.75;124135;1105;104217;-75
2023/08/22 05:44:11;;;;;;;21.87;13.60;;;;;;;25.40;66.78;100622.58;124222;1105;101900;-77
2023/08/22 05:46:42;;;;;;;22.73;13.50;;;;;;;25.50;66.69;100636.66;124294;1105;101899;-76
2023/08/22 05:49:14;;;;;;;29.30;14.50;;;;;;;25.58;66.82;100640.03;125112;1105;104099;-76
2023/08/22 05:51:49;;;;;;;23.90;14.23;;;;;;;25.66;66.36;100639.84;124088;1105;104169;-76
2023/08/22 05:54:20;;;;;;;25.03;14.00;;;;;;;25.74;66.27;100637.88;123932;1105;104300;-74
2023/08/22 05:56:54;;;;;;;22.80;13.17;;;;;;;25.85;65.72;100642.95;124006;1105;104230;-74
2023/08/22 05:59:26;;;;;;;;;;;;;;;25.88;64.54;100656.31;125151;1104;104309;-77
2023/08/22 06:01:57;;;;;;;22.70;13.53;;;;;;;25.94;65.08;100656.16;125105;1105;101942;-76
2023/08/22 06:04:37;;;;;;;20.57;13.37;;;;;;;25.98;64.93;100665.95;124308;1105;104415;-77
2023/08/22 06:07:18;;;;;;;30.13;13.97;;;;;;;26.04;64.81;100662.24;124257;1105;102121;-78
2023/08/22 06:09:58;;;;;;;23.43;13.47;;;;;;;26.09;64.23;100662.12;124212;1105;102183;-78
2023/08/22 06:12:32;;;;;;;22.20;13.63;;;;;;;26.14;64.21;100663.75;124331;1105;101899;-74
2023/08/22 06:15:05;;;;;;;21.80;13.67;;;;;;;26.20;63.38;100668.09;124346;1105;101996;-78
2023/08/22 06:17:42;;;;;;;26.03;13.70;;;;;;;26.25;63.46;100660.77;124475;1105;101892;-78
2023/08/22 06:20:15;;;;;;;22.30;13.80;;;;;;;26.34;63.47;100662.34;124472;1106;104667;-79
2023/08/22 06:22:47;;;;;;;23.38;12.78;;;;;;;26.41;63.08;100666.61;125341;1104;102191;-83
2023/08/22 06:25:24;;;;;;;23.10;13.72;;;;;;;26.46;62.75;100667.39;124923;1105;104200;-81
2023/08/22 06:27:55;;;;;;;22.00;13.17;;;;;;;26.53;62.81;100663.58;125192;1105;104290;-80
2023/08/22 06:30:27;;;;;;;;;;;;;;;26.58;62.75;100667.97;124948;1105;104201;-79
2023/08/22 06:33:03;;;;;;;20.90;13.27;;;;;;;26.65;62.42;100662.41;125302;1105;104179;-82
2023/08/22 06:35:40;;;;;;;22.73;14.00;;;;;;;26.77;62.33;100658.48;125137;1105;101916;-78
2023/08/22 06:38:22;;;;;;;21.87;13.90;;;;;;;26.90;62.46;100661.70;125459;1105;101750;-76
2023/08/22 06:40:57;;;;;;;21.63;13.53;;;;;;;27.04;62.23;100669.36;125292;1105;102062;-77
2023/08/22 06:43:36;;;;;;;22.57;13.50;;;;;;;27.17;61.79;100672.56;124971;1105;102312;-78
2023/08/22 06:46:30;;;;;;;20.60;13.40;;;;;;;27.28;61.33;100658.77;125949;1105;104284;-77
2023/08/22 06:49:07;;;;;;;22.50;12.80;;;;;;;27.42;61.47;100661.93;125112;1105;101907;-77
2023/08/22 06:51:46;;;;;;;22.27;13.07;;;;;;;27.58;61.36;100659.62;124528;1106;104172;-78
2023/08/22 06:54:27;;;;;;;24.23;13.70;;;;;;;27.67;60.26;100663.84;124494;1105;102030;-78
2023/08/22 06:56:59;;;;;;;23.33;13.20;;;;;;;27.78;60.36;100661.66;125262;1104;101978;-77
2023/08/22 07:02:58;;;;;;;23.10;13.17;;;;;;;28.15;59.62;100660.45;125456;1104;110589;-82
2023/08/22 07:05:50;;;;;;;21.53;12.63;;;;;;;28.32;59.16;100654.46;125141;1105;101843;-82
2023/08/22 07:08:57;;;;;;;21.77;13.23;;;;;;;28.54;58.57;100650.98;125314;1105;104250;-81
2023/08/22 07:11:57;;;;;;;22.13;13.10;;;;;;;28.73;57.69;100648.52;125392;1105;102169;-79
2023/08/22 07:14:35;;;;;;;25.93;13.07;;;;;;;28.93;57.35;100645.93;125385;1105;101846;-85
2023/08/22 07:17:10;;;;;;;20.63;12.33;;;;;;;29.12;56.80;100647.92;125590;1105;101792;-83
2023/08/22 07:19:51;;;;;;;19.77;12.20;;;;;;;29.37;56.15;100655.96;125609;1104;102020;-81
2023/08/22 07:22:23;;;;;;;21.63;11.80;;;;;;;29.49;55.47;100643.78;125580;1104;102050;-79
2023/08/22 07:25:09;;;;;;;22.20;13.00;;;;;;;29.66;55.34;100646.66;126766;1104;101469;-81
2023/08/22 07:27:57;;;;;;;17.70;10.43;;;;;;;29.91;55.06;100648.38;125625;1105;101782;-78
2023/08/22 07:30:36;;;;;;;20.50;11.33;;;;;;;30.18;53.91;100635.46;126356;1104;101734;-76
2023/08/22 07:33:16;;;;;;;18.60;10.87;;;;;;;30.42;53.40;100647.08;125568;1104;102022;-82
2023/08/22 07:35:52;;;;;;;24.33;11.63;;;;;;;30.65;52.72;100646.03;125494;1104;101940;-83
2023/08/22 07:38:31;;;;;;;20.13;10.93;;;;;;;30.75;52.42;100640.20;125831;1104;101961;-82
2023/08/22 07:41:22;;;;;;;18.47;10.77;;;;;;;30.88;51.78;100645.91;125909;1104;101747;-82
2023/08/22 07:44:09;;;;;;;17.23;10.53;;;;;;;31.03;50.70;100645.22;125163;1105;110634;-80
2023/08/22 07:46:43;;;;;;;17.90;11.03;;;;;;;31.20;49.91;100644.42;124508;1105;101855;-81
2023/08/22 07:49:15;;;;;;;16.97;10.87;;;;;;;31.32;49.72;100648.34;126343;1104;101965;-78
2023/08/22 07:52:01;;;;;;;20.47;11.30;;;;;;;31.44;49.14;100639.62;124162;1105;102018;-77
2023/08/22 07:54:42;;;;;;;18.83;10.37;;;;;;;31.59;47.86;100651.59;123847;1106;102005;-79
2023/08/22 07:57:24;;;;;;;16.17;10.00;;;;;;;31.62;47.81;100643.30;124720;1105;104213;-81
2023/08/22 08:00:07;;;;;;;;;;;;;;;31.73;45.69;100648.19;126246;1104;101660;-79
2023/08/22 08:02:58;;;;;;;19.10;10.60;;;;;;;31.85;47.05;100650.27;124360;1105;104220;-81
2023/08/22 08:05:34;;;;;;;17.73;10.20;;;;;;;32.01;47.67;100647.64;124876;1105;104496;-80
2023/08/22 08:08:46;;;;;;;17.87;10.03;;;;;;;32.07;46.83;100641.03;125757;1104;102049;-80
2023/08/22 08:11:58;;;;;;;18.10;10.13;;;;;;;32.12;45.84;100647.13;124417;1105;101964;-78
2023/08/22 08:14:36;;;;;;;17.93;10.43;;;;;;;32.08;45.37;100645.48;124059;1105;101915;-76
2023/08/22 08:17:19;;;;;;;17.12;10.40;;;;;;;31.99;45.08;100645.95;124082;1105;104325;-76
2023/08/22 08:20:04;;;;;;;17.90;10.43;;;;;;;32.00;45.04;100647.72;124062;1105;104244;-79
2023/08/22 08:22:40;;;;;;;18.10;10.33;;;;;;;32.01;45.09;100641.35;125430;1105;104105;-78
2023/08/22 08:25:31;;;;;;;18.60;10.60;;;;;;;32.05;44.94;100637.50;126202;1104;101812;-82
2023/08/22 08:28:06;;;;;;;16.80;10.57;;;;;;;32.16;44.77;100650.55;125405;1105;102025;-81
2023/08/22 08:30:47;;;;;;;18.60;10.27;;;;;;;32.18;44.61;100643.19;124712;1104;104285;-81
2023/08/22 08:33:19;;;;;;;17.67;10.27;;;;;;;32.10;44.35;100648.15;124790;1105;104256;-79
2023/08/22 08:35:56;;;;;;;16.60;10.45;;;;;;;32.09;44.48;100636.42;125765;1105;101747;-78
2023/08/22 08:38:30;;;;;;;18.20;9.87;;;;;;;32.18;44.50;100648.62;124907;1105;104237;-78
2023/08/22 08:41:08;;;;;;;15.63;10.27;;;;;;;32.18;44.09;100640.47;125449;1105;104249;-83
2023/08/22 08:43:45;;;;;;;19.13;10.63;;;;;;;32.19;43.90;100645.83;124837;1105;104287;-79
2023/08/22 08:46:32;;;;;;;19.20;10.97;;;;;;;32.16;43.95;100635.12;125726;1104;104339;-80
2023/08/22 08:49:11;;;;;;;17.37;10.37;;;;;;;32.17;44.13;100653.18;125142;1104;104073;-79
2023/08/22 08:51:47;;;;;;;16.60;10.53;;;;;;;32.12;43.89;100644.41;124066;1105;104275;-77
2023/08/22 08:54:26;;;;;;;18.57;11.53;;;;;;;32.21;44.14;100637.60;124897;1105;104198;-77
2023/08/22 08:56:57;;;;;;;15.80;10.17;;;;;;;32.20;43.92;100631.30;125281;1104;104226;-78
2023/08/22 08:59:43;;;;;;;18.50;10.70;;;;;;;32.19;43.91;100625.95;125088;1105;102005;-78
2023/08/22 09:02:23;;;;;;;15.23;9.73;;;;;;;32.27;43.62;100630.98;124458;1105;102237;-79
2023/08/22 09:04:56;;;;;;;19.53;11.00;;;;;;;32.28;43.40;100624.60;124926;1105;104300;-78
2023/08/22 09:07:30;;;;;;;20.73;11.27;;;;;;;32.27;43.27;100618.27;125186;1105;104332;-78
2023/08/22 09:10:13;;;;;;;17.83;10.60;;;;;;;32.30;43.22;100619.95;125479;1104;101919;-81
2023/08/22 09:13:03;;;;;;;18.63;11.03;;;;;;;32.39;43.38;100619.47;124958;1105;104301;-78
2023/08/22 09:15:37;;;;;;;18.30;11.40;;;;;;;32.46;43.23;100620.01;124492;1105;102111;-82
2023/08/22 09:18:30;;;;;;;16.20;10.70;;;;;;;32.41;42.72;100606.67;125682;1105;101888;-82
2023/08/22 09:21:05;;;;;;;16.67;10.00;;;;;;;32.50;42.64;100611.61;124238;1105;103752;-77
2023/08/22 09:23:38;;;;;;;17.40;10.57;;;;;;;32.52;42.42;100609.71;124155;1105;102276;-80
2023/08/22 09:26:14;;;;;;;17.93;9.93;;;;;;;32.66;42.37;100599.94;125178;1105;101944;-80
2023/08/22 09:28:55;;;;;;;17.20;11.07;;;;;;;32.73;42.42;100604.95;124073;1105;104258;-78
2023/08/22 09:31:26;;;;;;;18.63;10.97;;;;;;;32.84;42.41;100598.92;123966;1105;104411;-77
2023/08/22 09:34:07;;;;;;;17.37;10.67;;;;;;;32.87;41.80;100612.34;124260;1105;104265;-81
2023/08/22 09:36:46;;;;;;;14.37;9.93;;;;;;;32.93;41.74;100598.41;124266;1105;118579;-79
2023/08/22 09:39:21;;;;;;;17.30;10.83;;;;;;;33.12;41.74;100592.80;124110;1105;104345;-80
2023/08/22 09:41:56;;;;;;;15.57;9.80;;;;;;;33.21;41.06;100588.72;124309;1105;101965;-80
2023/08/22 09:44:32;;;;;;;17.33;10.80;;;;;;;33.21;41.00;100591.44;124415;1105;104210;-81
2023/08/22 09:47:09;;;;;;;13.57;9.33;;;;;;;33.24;41.07;100585.82;125438;1104;101881;-82
2023/08/22 09:49:44;;;;;;;20.95;11.20;;;;;;;33.23;41.12;100589.49;126391;1104;101993;-84
2023/08/22 09:52:18;;;;;;;15.93;9.63;;;;;;;33.28;41.00;100590.09;126145;1105;101702;-80
2023/08/22 09:54:59;;;;;;;21.12;11.68;;;;;;;33.34;41.01;100580.71;124202;1105;104236;-80
2023/08/22 09:57:38;;;;;;;17.57;10.43;;;;;;;33.40;40.67;100585.80;124276;1105;112029;-79
2023/08/22 10:00:15;;;;;;;15.07;9.60;;;;;;;33.40;40.34;100587.64;124124;1105;102093;-79
2023/08/22 10:02:52;;;;;;;17.23;9.77;;;;;;;33.18;40.38;100591.61;124114;1105;104297;-77
2023/08/22 10:05:35;;;;;;;17.50;9.60;;;;;;;33.06;40.29;100592.28;125100;1105;104257;-84
2023/08/22 10:08:09;;;;;;;15.37;9.50;;;;;;;32.95;40.15;100574.73;125469;1104;101811;-83
2023/08/22 10:10:47;;;;;;;14.53;9.43;;;;;;;33.05;40.05;100585.08;124931;1105;102093;-86
2023/08/22 10:13:41;;;;;;;13.30;9.13;;;;;;;32.93;39.94;100584.82;126395;1104;101796;-87
2023/08/22 10:16:19;;;;;;;15.37;9.10;;;;;;;32.77;39.95;100586.63;124910;1105;104185;-77
2023/08/22 10:19:05;;;;;;;15.55;9.28;;;;;;;32.80;40.43;100586.46;124948;1104;104289;-82
2023/08/22 10:21:48;;;;;;;16.43;9.07;;;;;;;33.00;40.33;100579.91;125135;1105;104171;-79
2023/08/22 10:24:38;;;;;;;15.50;9.45;;;;;;;33.09;40.19;100583.95;125631;1105;102459;-88
2023/08/22 10:27:15;;;;;;;13.00;8.80;;;;;;;32.99;39.70;100585.42;125234;1105;101853;-85
2023/08/22 10:30:28;;;;;;;13.85;8.85;;;;;;;33.00;39.26;100574.47;125833;1104;102473;-82
2023/08/22 10:33:08;;;;;;;13.23;8.90;;;;;;;33.05;39.69;100563.33;125284;1105;104275;-84
2023/08/22 10:35:42;;;;;;;16.53;9.30;;;;;;;33.16;39.89;100582.64;126622;1104;101682;-83
2023/08/22 10:38:22;;;;;;;17.17;8.93;;;;;;;33.18;39.50;100572.58;126315;1104;101865;-81
2023/08/22 10:40:57;;;;;;;12.33;8.47;;;;;;;33.15;39.46;100581.74;126682;1104;101702;-80
2023/08/22 10:43:40;;;;;;;15.13;8.53;;;;;;;33.22;39.24;100575.98;125956;1103;101930;-81
2023/08/22 10:46:21;;;;;;;12.93;8.73;;;;;;;33.35;38.99;100570.70;126511;1104;101479;-83
2023/08/22 10:49:39;;;;;;;;;;;;;;;;;;;;;
2023/08/22 10:52:16;;;;;;;15.30;8.83;;;;;;;33.66;38.64;100565.21;125454;1106;101853;-80
2023/08/22 10:55:08;;;;;;;14.50;8.30;;;;;;;33.78;38.38;100569.05;126277;1105;101662;-82
2023/08/22 10:57:55;;;;;;;13.37;8.57;;;;;;;33.71;38.38;100566.79;125806;1106;101985;-81
2023/08/22 11:00:41;;;;;;;16.87;8.67;;;;;;;33.64;38.01;100567.16;126168;1105;104256;-79
2023/08/22 11:03:15;;;;;;;12.53;7.73;;;;;;;33.77;37.98;100560.98;126057;1105;104102;-78
2023/08/22 11:05:48;;;;;;;12.87;8.30;;;;;;;33.75;37.75;100571.95;125350;1104;102114;-82
2023/08/22 11:08:23;;;;;;;13.87;8.20;;;;;;;33.65;37.44;100568.02;124903;1106;101999;-82
2023/08/22 11:11:04;;;;;;;15.37;9.13;;;;;;;33.50;37.43;100559.82;126028;1105;102430;-86
2023/08/22 11:13:46;;;;;;;12.97;7.87;;;;;;;33.50;37.32;100565.26;125526;1104;104230;-81
2023/08/22 11:16:19;;;;;;;15.35;8.45;;;;;;;33.40;37.59;100555.02;124995;1105;101888;-79
2023/08/22 11:18:54;;;;;;;12.43;7.78;;;;;;;33.31;37.82;100560.00;125083;1105;101827;-83
2023/08/22 11:21:29;;;;;;;13.33;8.13;;;;;;;33.21;37.73;100558.81;126504;1105;101089;-82
2023/08/22 11:24:07;;;;;;;12.73;8.10;;;;;;;33.13;37.50;100555.63;124983;1106;102199;-78
2023/08/22 11:26:58;;;;;;;18.03;7.80;;;;;;;32.95;37.44;100557.56;125340;1104;101877;-79
2023/08/22 11:29:53;;;;;;;11.50;7.47;;;;;;;32.76;37.31;100552.30;125065;1105;101850;-78
2023/08/22 11:32:36;;;;;;;14.63;8.07;;;;;;;32.84;37.48;100555.45;125594;1100;101784;-78
2023/08/22 11:35:28;;;;;;;16.67;8.30;;;;;;;33.03;37.55;100560.70;126274;1105;101681;-80
2023/08/22 11:38:32;;;;;;;12.87;8.43;;;;;;;33.22;37.50;100551.52;124687;1105;104217;-75
2023/08/22 11:41:09;;;;;;;10.43;6.87;;;;;;;33.36;37.15;100562.45;125378;1104;104188;-77